South Kearny, New Jersey
Current Conditions -  °F | °C
As of 8:51 AM on Saturday 22 Nov 2014 (Local Time) from KEWR Reporting Station
Few Clouds Few Clouds  
Wind Chill: -8°   Ceiling: Unl
Heat Index: -3°   Visibility: 10mi
Dew Point: -11°   Wind: 8mph
Humidity: 55%   Direction: 240°WSW
Pressure: 30.49"   Gusts: NA
Location:  40.7563°N, 74.1217°W
Report Text: KEWR 221351Z 24007KT 10SM FEW250 M03/M11 A3049 RMK AO2 SLP324 T10331111
Loading
Personal Weather Stations






























Interactive Weather Map New forecast layout! Learn more

10-Day Weather Forecast

Advertisements
Track Severe Weather on mobile